sensor_id;sensor_type;location;lat;lon;timestamp;pressure;altitude;pressure_sealevel;temperature;humidity
28344;BME280;15597;50.914;6.638;2023-05-25T00:01:40;101654.72;;;18.55;40.89
28344;BME280;15597;50.914;6.638;2023-05-25T00:04:08;101659.16;;;18.54;41.01
28344;BME280;15597;50.914;6.638;2023-05-25T00:06:35;101664.59;;;18.51;40.89
28344;BME280;15597;50.914;6.638;2023-05-25T00:09:06;101670.00;;;18.48;41.18
28344;BME280;15597;50.914;6.638;2023-05-25T00:11:32;101675.41;;;18.45;41.15
28344;BME280;15597;50.914;6.638;2023-05-25T00:13:57;101675.41;;;18.45;41.06
28344;BME280;15597;50.914;6.638;2023-05-25T00:16:23;101673.69;;;18.44;41.04
28344;BME280;15597;50.914;6.638;2023-05-25T00:18:49;101667.59;;;18.42;40.96
28344;BME280;15597;50.914;6.638;2023-05-25T00:21:14;101668.50;;;18.41;41.18
28344;BME280;15597;50.914;6.638;2023-05-25T00:23:41;101672.06;;;18.40;41.06
28344;BME280;15597;50.914;6.638;2023-05-25T00:26:07;101676.56;;;18.38;41.22
28344;BME280;15597;50.914;6.638;2023-05-25T00:28:32;101677.53;;;18.35;40.98
28344;BME280;15597;50.914;6.638;2023-05-25T00:30:58;101669.69;;;18.32;41.05
28344;BME280;15597;50.914;6.638;2023-05-25T00:33:23;101674.25;;;18.29;41.18
28344;BME280;15597;50.914;6.638;2023-05-25T00:35:49;101669.06;;;18.25;41.11
28344;BME280;15597;50.914;6.638;2023-05-25T00:38:16;101668.19;;;18.25;41.21
28344;BME280;15597;50.914;6.638;2023-05-25T00:40:44;101667.47;;;18.21;41.30
28344;BME280;15597;50.914;6.638;2023-05-25T00:43:11;101671.03;;;18.20;41.31
28344;BME280;15597;50.914;6.638;2023-05-25T00:45:37;101676.44;;;18.17;41.41
28344;BME280;15597;50.914;6.638;2023-05-25T00:48:04;101671.16;;;18.17;41.19
28344;BME280;15597;50.914;6.638;2023-05-25T00:50:40;101662.50;;;18.12;41.32
28344;BME280;15597;50.914;6.638;2023-05-25T00:53:07;101669.56;;;18.12;41.40
28344;BME280;15597;50.914;6.638;2023-05-25T00:55:35;101665.31;;;18.07;41.35
28344;BME280;15597;50.914;6.638;2023-05-25T00:58:03;101666.19;;;18.08;41.59
28344;BME280;15597;50.914;6.638;2023-05-25T01:00:31;101668.03;;;18.06;41.38
28344;BME280;15597;50.914;6.638;2023-05-25T01:02:58;101673.31;;;18.06;41.17
28344;BME280;15597;50.914;6.638;2023-05-25T01:05:24;101668.97;;;18.03;41.31
28344;BME280;15597;50.914;6.638;2023-05-25T01:07:56;101664.63;;;18.01;41.13
28344;BME280;15597;50.914;6.638;2023-05-25T01:10:23;101661.16;;;17.99;41.33
28344;BME280;15597;50.914;6.638;2023-05-25T01:12:52;101670.00;;;17.98;41.18
28344;BME280;15597;50.914;6.638;2023-05-25T01:15:19;101665.75;;;17.93;41.55
28344;BME280;15597;50.914;6.638;2023-05-25T01:17:44;101669.41;;;17.89;41.41
28344;BME280;15597;50.914;6.638;2023-05-25T01:20:10;101668.63;;;17.87;41.44
28344;BME280;15597;50.914;6.638;2023-05-25T01:25:11;101665.38;;;17.79;41.53
28344;BME280;15597;50.914;6.638;2023-05-25T01:27:43;101664.56;;;17.77;41.44
28344;BME280;15597;50.914;6.638;2023-05-25T01:30:21;101672.50;;;17.77;41.62
28344;BME280;15597;50.914;6.638;2023-05-25T01:32:49;101668.22;;;17.73;41.54
28344;BME280;15597;50.914;6.638;2023-05-25T01:35:17;101667.38;;;17.72;41.77
28344;BME280;15597;50.914;6.638;2023-05-25T01:37:45;101673.59;;;17.71;41.64
28344;BME280;15597;50.914;6.638;2023-05-25T01:40:12;101667.41;;;17.71;41.77
28344;BME280;15597;50.914;6.638;2023-05-25T01:42:38;101674.53;;;17.69;41.49
28344;BME280;15597;50.914;6.638;2023-05-25T01:45:04;101665.78;;;17.66;41.60
28344;BME280;15597;50.914;6.638;2023-05-25T01:47:45;101671.19;;;17.63;41.62
28344;BME280;15597;50.914;6.638;2023-05-25T01:50:20;101671.28;;;17.60;41.67
28344;BME280;15597;50.914;6.638;2023-05-25T01:52:56;101669.66;;;17.56;41.81
28344;BME280;15597;50.914;6.638;2023-05-25T01:55:26;101667.94;;;17.55;41.76
28344;BME280;15597;50.914;6.638;2023-05-25T01:57:55;101668.03;;;17.52;41.77
28344;BME280;15597;50.914;6.638;2023-05-25T02:00:26;101673.44;;;17.49;41.80
28344;BME280;15597;50.914;6.638;2023-05-25T02:02:55;101670.81;;;17.47;41.92
28344;BME280;15597;50.914;6.638;2023-05-25T02:05:21;101678.84;;;17.46;41.94
28344;BME280;15597;50.914;6.638;2023-05-25T02:07:47;101678.94;;;17.43;41.93
28344;BME280;15597;50.914;6.638;2023-05-25T02:10:12;101666.63;;;17.42;41.94
28344;BME280;15597;50.914;6.638;2023-05-25T02:12:38;101669.38;;;17.38;41.73
28344;BME280;15597;50.914;6.638;2023-05-25T02:15:04;101669.38;;;17.38;41.91
28344;BME280;15597;50.914;6.638;2023-05-25T02:17:30;101661.53;;;17.35;41.88
28344;BME280;15597;50.914;6.638;2023-05-25T02:19:55;101657.97;;;17.36;42.07
28344;BME280;15597;50.914;6.638;2023-05-25T02:22:21;101662.38;;;17.36;41.94
28344;BME280;15597;50.914;6.638;2023-05-25T02:24:47;101668.66;;;17.33;41.93
28344;BME280;15597;50.914;6.638;2023-05-25T02:27:13;101675.78;;;17.31;42.10
28344;BME280;15597;50.914;6.638;2023-05-25T02:29:39;101672.31;;;17.29;42.13
28344;BME280;15597;50.914;6.638;2023-05-25T02:32:05;101668.84;;;17.27;41.98
28344;BME280;15597;50.914;6.638;2023-05-25T02:34:31;101660.94;;;17.27;41.78
28344;BME280;15597;50.914;6.638;2023-05-25T02:36:56;101665.41;;;17.25;42.06
28344;BME280;15597;50.914;6.638;2023-05-25T02:39:22;101654.91;;;17.22;42.09
28344;BME280;15597;50.914;6.638;2023-05-25T02:41:52;101669.06;;;17.21;41.83
28344;BME280;15597;50.914;6.638;2023-05-25T02:44:18;101665.69;;;17.16;42.11
28344;BME280;15597;50.914;6.638;2023-05-25T02:46:44;101674.53;;;17.15;42.11
28344;BME280;15597;50.914;6.638;2023-05-25T02:49:11;101675.50;;;17.12;42.05
28344;BME280;15597;50.914;6.638;2023-05-25T02:51:36;101678.19;;;17.11;42.07
28344;BME280;15597;50.914;6.638;2023-05-25T02:54:03;101674.75;;;17.08;42.10
28344;BME280;15597;50.914;6.638;2023-05-25T02:56:30;101674.84;;;17.05;42.26
28344;BME280;15597;50.914;6.638;2023-05-25T02:58:57;101682.81;;;17.04;42.50
28344;BME280;15597;50.914;6.638;2023-05-25T03:01:29;101677.59;;;17.01;42.43
28344;BME280;15597;50.914;6.638;2023-05-25T03:03:55;101675.03;;;16.99;42.34
28344;BME280;15597;50.914;6.638;2023-05-25T03:06:23;101679.50;;;16.97;42.26
28344;BME280;15597;50.914;6.638;2023-05-25T03:08:58;101678.25;;;16.79;42.36
28344;BME280;15597;50.914;6.638;2023-05-25T03:11:23;101673.81;;;16.79;42.60
28344;BME280;15597;50.914;6.638;2023-05-25T03:13:50;101679.09;;;16.79;42.67
28344;BME280;15597;50.914;6.638;2023-05-25T03:16:17;101679.09;;;16.79;42.69
28344;BME280;15597;50.914;6.638;2023-05-25T03:18:43;101679.09;;;16.79;42.69
28344;BME280;15597;50.914;6.638;2023-05-25T03:21:08;101680.81;;;16.80;42.61
28344;BME280;15597;50.914;6.638;2023-05-25T03:23:34;101697.56;;;16.81;42.58
28344;BME280;15597;50.914;6.638;2023-05-25T03:26:03;101701.97;;;16.80;42.53
28344;BME280;15597;50.914;6.638;2023-05-25T03:28:30;101701.97;;;16.80;42.51
28344;BME280;15597;50.914;6.638;2023-05-25T03:30:55;101698.50;;;16.78;42.61
28344;BME280;15597;50.914;6.638;2023-05-25T03:33:21;101698.59;;;16.75;42.68
28344;BME280;15597;50.914;6.638;2023-05-25T03:35:48;101703.06;;;16.73;42.75
28344;BME280;15597;50.914;6.638;2023-05-25T03:38:14;101702.25;;;16.71;42.57
28344;BME280;15597;50.914;6.638;2023-05-25T03:40:39;101706.69;;;16.71;43.13
28344;BME280;15597;50.914;6.638;2023-05-25T03:43:05;101711.09;;;16.70;42.75
28344;BME280;15597;50.914;6.638;2023-05-25T03:45:31;101711.16;;;16.67;42.85
28344;BME280;15597;50.914;6.638;2023-05-25T03:47:56;101713.00;;;16.65;42.74
28344;BME280;15597;50.914;6.638;2023-05-25T03:50:22;101714.81;;;16.63;42.82
28344;BME280;15597;50.914;6.638;2023-05-25T03:52:47;101714.81;;;16.63;42.89
28344;BME280;15597;50.914;6.638;2023-05-25T03:55:13;101721.00;;;16.62;42.93
28344;BME280;15597;50.914;6.638;2023-05-25T03:57:41;101723.75;;;16.59;43.12
28344;BME280;15597;50.914;6.638;2023-05-25T04:00:07;101727.34;;;16.56;43.14
28344;BME280;15597;50.914;6.638;2023-05-25T04:02:39;101725.66;;;16.54;43.15
28344;BME280;15597;50.914;6.638;2023-05-25T04:05:05;101738.91;;;16.52;43.15
28344;BME280;15597;50.914;6.638;2023-05-25T04:07:31;101738.03;;;16.52;43.21
28344;BME280;15597;50.914;6.638;2023-05-25T04:09:57;101741.59;;;16.50;43.34
28344;BME280;15597;50.914;6.638;2023-05-25T04:12:24;101745.13;;;16.49;43.40
28344;BME280;15597;50.914;6.638;2023-05-25T04:14:50;101743.38;;;16.50;43.36
28344;BME280;15597;50.914;6.638;2023-05-25T04:17:16;101752.16;;;16.50;43.35
28344;BME280;15597;50.914;6.638;2023-05-25T04:19:43;101753.94;;;16.50;43.27
28344;BME280;15597;50.914;6.638;2023-05-25T04:22:09;101763.63;;;16.49;43.39
28344;BME280;15597;50.914;6.638;2023-05-25T04:24:34;101761.91;;;16.48;43.52
28344;BME280;15597;50.914;6.638;2023-05-25T04:27:00;101760.22;;;16.46;43.50
28344;BME280;15597;50.914;6.638;2023-05-25T04:29:27;101759.34;;;16.45;43.57
28344;BME280;15597;50.914;6.638;2023-05-25T04:32:11;101770.84;;;16.43;43.68
28344;BME280;15597;50.914;6.638;2023-05-25T04:34:55;101767.34;;;16.42;43.54
28344;BME280;15597;50.914;6.638;2023-05-25T04:37:23;101766.41;;;16.45;43.54
28344;BME280;15597;50.914;6.638;2023-05-25T04:39:51;101768.19;;;16.44;43.66
28344;BME280;15597;50.914;6.638;2023-05-25T04:42:18;101777.91;;;16.44;43.72
28344;BME280;15597;50.914;6.638;2023-05-25T04:44:43;101777.00;;;16.43;43.66
28344;BME280;15597;50.914;6.638;2023-05-25T04:47:09;101769.97;;;16.44;43.85
28344;BME280;15597;50.914;6.638;2023-05-25T04:49:35;101775.19;;;16.45;43.71
28344;BME280;15597;50.914;6.638;2023-05-25T04:52:00;101772.53;;;16.47;43.73
28344;BME280;15597;50.914;6.638;2023-05-25T04:54:28;101773.34;;;16.49;43.83
28344;BME280;15597;50.914;6.638;2023-05-25T04:56:56;101767.16;;;16.50;43.75
28344;BME280;15597;50.914;6.638;2023-05-25T04:59:22;101762.72;;;16.50;43.98
28344;BME280;15597;50.914;6.638;2023-05-25T05:01:48;101762.72;;;16.50;43.95
28344;BME280;15597;50.914;6.638;2023-05-25T05:04:15;101763.59;;;16.51;43.83
28344;BME280;15597;50.914;6.638;2023-05-25T05:06:42;101773.22;;;16.54;43.93
28344;BME280;15597;50.914;6.638;2023-05-25T05:09:14;101780.22;;;16.55;43.80
28344;BME280;15597;50.914;6.638;2023-05-25T05:11:39;101786.38;;;16.55;43.94
28344;BME280;15597;50.914;6.638;2023-05-25T05:14:06;101780.22;;;16.55;44.23
28344;BME280;15597;50.914;6.638;2023-05-25T05:16:31;101775.91;;;16.52;44.08
28344;BME280;15597;50.914;6.638;2023-05-25T05:19:00;101780.31;;;16.52;44.04
28344;BME280;15597;50.914;6.638;2023-05-25T05:21:26;101775.94;;;16.50;44.30
28344;BME280;15597;50.914;6.638;2023-05-25T05:23:52;101777.72;;;16.50;44.35
28344;BME280;15597;50.914;6.638;2023-05-25T05:26:17;101775.94;;;16.50;44.63
28344;BME280;15597;50.914;6.638;2023-05-25T05:28:43;101782.88;;;16.55;44.31
28344;BME280;15597;50.914;6.638;2023-05-25T05:31:09;101781.97;;;16.56;44.39
28344;BME280;15597;50.914;6.638;2023-05-25T05:33:36;101796.88;;;16.58;44.27
28344;BME280;15597;50.914;6.638;2023-05-25T05:36:01;101787.25;;;16.56;44.42
28344;BME280;15597;50.914;6.638;2023-05-25T05:38:28;101796.06;;;16.55;44.41
28344;BME280;15597;50.914;6.638;2023-05-25T05:40:54;101809.25;;;16.56;44.36
28344;BME280;15597;50.914;6.638;2023-05-25T05:43:21;101805.72;;;16.56;44.54
28344;BME280;15597;50.914;6.638;2023-05-25T05:45:47;101807.56;;;16.54;44.51
28344;BME280;15597;50.914;6.638;2023-05-25T05:48:12;101814.66;;;16.52;44.97
28344;BME280;15597;50.914;6.638;2023-05-25T05:50:38;101820.00;;;16.50;45.16
28344;BME280;15597;50.914;6.638;2023-05-25T05:53:05;101815.56;;;16.50;44.59
28344;BME280;15597;50.914;6.638;2023-05-25T05:55:34;101817.28;;;16.52;45.04
28344;BME280;15597;50.914;6.638;2023-05-25T05:57:59;101818.13;;;16.54;45.29
28344;BME280;15597;50.914;6.638;2023-05-25T06:00:25;101816.38;;;16.54;45.01
28344;BME280;15597;50.914;6.638;2023-05-25T06:02:51;101825.13;;;16.56;45.28
28344;BME280;15597;50.914;6.638;2023-05-25T06:05:19;101821.50;;;16.59;45.22
28344;BME280;15597;50.914;6.638;2023-05-25T06:07:46;101822.31;;;16.61;45.17
28344;BME280;15597;50.914;6.638;2023-05-25T06:10:12;101825.88;;;16.60;45.16
28344;BME280;15597;50.914;6.638;2023-05-25T06:12:38;101822.31;;;16.61;45.13
28344;BME280;15597;50.914;6.638;2023-05-25T06:15:05;101826.63;;;16.65;45.22
28344;BME280;15597;50.914;6.638;2023-05-25T06:17:31;101835.47;;;16.64;45.31
28344;BME280;15597;50.914;6.638;2023-05-25T06:19:57;101834.53;;;16.65;45.46
28344;BME280;15597;50.914;6.638;2023-05-25T06:22:22;101824.88;;;16.65;45.69
28344;BME280;15597;50.914;6.638;2023-05-25T06:24:52;101823.81;;;16.71;45.66
28344;BME280;15597;50.914;6.638;2023-05-25T06:27:18;101830.81;;;16.72;45.83
28344;BME280;15597;50.914;6.638;2023-05-25T06:29:43;101831.66;;;16.74;45.53
28344;BME280;15597;50.914;6.638;2023-05-25T06:32:09;101836.00;;;16.77;45.50
28344;BME280;15597;50.914;6.638;2023-05-25T06:34:36;101840.31;;;16.79;45.41
28344;BME280;15597;50.914;6.638;2023-05-25T06:37:01;101848.06;;;16.86;46.24
28344;BME280;15597;50.914;6.638;2023-05-25T06:39:27;101842.72;;;16.89;45.88
28344;BME280;15597;50.914;6.638;2023-05-25T06:41:53;101844.44;;;16.90;46.22
28344;BME280;15597;50.914;6.638;2023-05-25T06:44:27;101849.16;;;16.78;45.98
28344;BME280;15597;50.914;6.638;2023-05-25T06:46:53;101851.53;;;16.88;46.79
28344;BME280;15597;50.914;6.638;2023-05-25T06:49:18;101847.91;;;16.92;46.31
28344;BME280;15597;50.914;6.638;2023-05-25T06:51:44;101849.56;;;16.96;46.69
28344;BME280;15597;50.914;6.638;2023-05-25T06:54:10;101853.00;;;17.01;46.70
28344;BME280;15597;50.914;6.638;2023-05-25T06:56:38;101857.28;;;17.05;46.49
28344;BME280;15597;50.914;6.638;2023-05-25T06:59:03;101858.03;;;17.11;46.50
28344;BME280;15597;50.914;6.638;2023-05-25T07:01:29;101856.09;;;17.16;46.79
28344;BME280;15597;50.914;6.638;2023-05-25T07:03:55;101859.41;;;17.24;46.61
28344;BME280;15597;50.914;6.638;2023-05-25T07:06:21;101861.78;;;17.32;46.91
28344;BME280;15597;50.914;6.638;2023-05-25T07:08:49;101858.13;;;17.37;46.57
28344;BME280;15597;50.914;6.638;2023-05-25T07:11:16;101864.22;;;17.40;46.82
28344;BME280;15597;50.914;6.638;2023-05-25T07:13:45;101861.50;;;17.43;46.66
28344;BME280;15597;50.914;6.638;2023-05-25T07:16:10;101866.69;;;17.46;46.46
28344;BME280;15597;50.914;6.638;2023-05-25T07:18:40;101857.03;;;17.45;46.51
28344;BME280;15597;50.914;6.638;2023-05-25T07:21:07;101857.84;;;17.47;46.58
28344;BME280;15597;50.914;6.638;2023-05-25T07:23:36;101862.22;;;17.48;46.72
28344;BME280;15597;50.914;6.638;2023-05-25T07:26:02;101867.38;;;17.52;46.94
28344;BME280;15597;50.914;6.638;2023-05-25T07:28:28;101867.22;;;17.57;46.73
28344;BME280;15597;50.914;6.638;2023-05-25T07:30:54;101867.94;;;17.62;46.57
28344;BME280;15597;50.914;6.638;2023-05-25T07:33:20;101876.63;;;17.67;46.54
28344;BME280;15597;50.914;6.638;2023-05-25T07:35:46;101869.50;;;17.70;46.84
28344;BME280;15597;50.914;6.638;2023-05-25T07:38:12;101870.31;;;17.72;46.79
28344;BME280;15597;50.914;6.638;2023-05-25T07:40:37;101864.00;;;17.76;46.98
28344;BME280;15597;50.914;6.638;2023-05-25T07:43:03;101862.09;;;17.81;46.59
28344;BME280;15597;50.914;6.638;2023-05-25T07:45:29;101861.88;;;17.87;46.65
28344;BME280;15597;50.914;6.638;2023-05-25T07:47:56;101864.44;;;17.90;46.70
28344;BME280;15597;50.914;6.638;2023-05-25T07:50:22;101868.72;;;17.94;46.64
28344;BME280;15597;50.914;6.638;2023-05-25T07:52:48;101868.59;;;17.99;46.98
28344;BME280;15597;50.914;6.638;2023-05-25T07:55:14;101861.44;;;18.03;46.56
28344;BME280;15597;50.914;6.638;2023-05-25T07:57:41;101874.50;;;18.09;46.72
28344;BME280;15597;50.914;6.638;2023-05-25T08:00:08;101863.72;;;18.14;46.72
28344;BME280;15597;50.914;6.638;2023-05-25T08:02:42;101869.81;;;18.17;46.50
28344;BME280;15597;50.914;6.638;2023-05-25T08:05:08;101869.63;;;18.22;46.51
28344;BME280;15597;50.914;6.638;2023-05-25T08:07:34;101866.03;;;18.24;46.33
28344;BME280;15597;50.914;6.638;2023-05-25T08:10:00;101865.97;;;18.26;46.65
28344;BME280;15597;50.914;6.638;2023-05-25T08:12:28;101866.66;;;18.33;46.45
28344;BME280;15597;50.914;6.638;2023-05-25T08:14:54;101868.28;;;18.37;46.17
28344;BME280;15597;50.914;6.638;2023-05-25T08:17:20;101865.56;;;18.38;46.41
28344;BME280;15597;50.914;6.638;2023-05-25T08:19:46;101871.63;;;18.42;46.21
28344;BME280;15597;50.914;6.638;2023-05-25T08:22:12;101862.75;;;18.43;46.22
28344;BME280;15597;50.914;6.638;2023-05-25T08:24:39;101867.94;;;18.46;46.00
28344;BME280;15597;50.914;6.638;2023-05-25T08:27:06;101859.91;;;18.49;46.16
28344;BME280;15597;50.914;6.638;2023-05-25T08:29:32;101872.06;;;18.55;46.25
28344;BME280;15597;50.914;6.638;2023-05-25T08:31:58;101871.88;;;18.61;46.25
28344;BME280;15597;50.914;6.638;2023-05-25T08:34:25;101868.13;;;18.67;46.31
28344;BME280;15597;50.914;6.638;2023-05-25T08:36:52;101868.81;;;18.72;46.16
28344;BME280;15597;50.914;6.638;2023-05-25T08:39:18;101868.59;;;18.78;45.91
28344;BME280;15597;50.914;6.638;2023-05-25T08:41:44;101868.50;;;18.81;45.93
28344;BME280;15597;50.914;6.638;2023-05-25T08:44:11;101866.66;;;18.83;45.97
28344;BME280;15597;50.914;6.638;2023-05-25T08:46:39;101871.84;;;18.87;45.69
28344;BME280;15597;50.914;6.638;2023-05-25T08:49:13;101862.97;;;18.88;45.67
28344;BME280;15597;50.914;6.638;2023-05-25T08:51:47;101864.59;;;18.92;45.62
28344;BME280;15597;50.914;6.638;2023-05-25T08:54:17;101865.28;;;18.98;45.58
28344;BME280;15597;50.914;6.638;2023-05-25T08:56:56;101872.19;;;19.03;46.01
28344;BME280;15597;50.914;6.638;2023-05-25T09:05:03;101869.78;;;18.95;45.77
28344;BME280;15597;50.914;6.638;2023-05-25T09:07:30;101870.47;;;19.02;45.90
28344;BME280;15597;50.914;6.638;2023-05-25T09:09:57;101858.75;;;19.07;45.86
28344;BME280;15597;50.914;6.638;2023-05-25T09:12:28;101859.47;;;19.12;45.80
28344;BME280;15597;50.914;6.638;2023-05-25T09:14:57;101854.63;;;19.24;45.82
28344;BME280;15597;50.914;6.638;2023-05-25T09:17:23;101856.81;;;19.36;46.14
28344;BME280;15597;50.914;6.638;2023-05-25T09:19:49;101865.03;;;19.52;45.56
28344;BME280;15597;50.914;6.638;2023-05-25T09:22:16;101865.59;;;19.61;45.17
28344;BME280;15597;50.914;6.638;2023-05-25T09:24:43;101864.44;;;19.68;45.46
28344;BME280;15597;50.914;6.638;2023-05-25T09:27:10;101859.63;;;19.78;45.14
28344;BME280;15597;50.914;6.638;2023-05-25T09:29:37;101863.56;;;19.67;45.31
28344;BME280;15597;50.914;6.638;2023-05-25T09:32:04;101860.41;;;19.80;44.91
28344;BME280;15597;50.914;6.638;2023-05-25T09:34:34;101874.03;;;19.94;45.19
28344;BME280;15597;50.914;6.638;2023-05-25T09:37:10;101864.75;;;20.05;45.20
28344;BME280;15597;50.914;6.638;2023-05-25T09:39:39;101865.09;;;20.19;44.45
28344;BME280;15597;50.914;6.638;2023-05-25T09:42:05;101866.69;;;20.23;44.37
28344;BME280;15597;50.914;6.638;2023-05-25T09:44:32;101875.44;;;20.25;44.04
28344;BME280;15597;50.914;6.638;2023-05-25T09:46:58;101871.88;;;20.26;44.17
28344;BME280;15597;50.914;6.638;2023-05-25T09:49:25;101879.59;;;20.33;44.02
28344;BME280;15597;50.914;6.638;2023-05-25T09:51:52;101873.19;;;20.37;43.63
28344;BME280;15597;50.914;6.638;2023-05-25T09:54:20;101877.78;;;20.33;43.57
28344;BME280;15597;50.914;6.638;2023-05-25T09:56:47;101876.78;;;20.36;43.96
28344;BME280;15597;50.914;6.638;2023-05-25T09:59:14;101869.63;;;20.38;43.84
28344;BME280;15597;50.914;6.638;2023-05-25T10:01:40;101874.94;;;20.38;43.65
28344;BME280;15597;50.914;6.638;2023-05-25T10:04:06;101870.47;;;20.38;43.50
28344;BME280;15597;50.914;6.638;2023-05-25T10:06:32;101871.22;;;20.42;43.85
28344;BME280;15597;50.914;6.638;2023-05-25T10:08:59;101877.06;;;20.50;43.56
28344;BME280;15597;50.914;6.638;2023-05-25T10:11:26;101874.13;;;20.56;43.51
28344;BME280;15597;50.914;6.638;2023-05-25T10:13:53;101882.66;;;20.65;43.58
28344;BME280;15597;50.914;6.638;2023-05-25T10:16:23;101871.00;;;20.67;43.68
28344;BME280;15597;50.914;6.638;2023-05-25T10:19:19;101878.16;;;20.65;43.71
28344;BME280;15597;50.914;6.638;2023-05-25T10:22:00;101872.63;;;20.71;43.40
28344;BME280;15597;50.914;6.638;2023-05-25T10:24:33;101878.41;;;20.81;43.22
28344;BME280;15597;50.914;6.638;2023-05-25T10:27:04;101879.59;;;20.95;43.13
28344;BME280;15597;50.914;6.638;2023-05-25T10:29:32;101875.44;;;21.08;43.20
28344;BME280;15597;50.914;6.638;2023-05-25T10:32:00;101871.41;;;21.19;43.06
28344;BME280;15597;50.914;6.638;2023-05-25T10:34:26;101874.81;;;21.22;42.55
28344;BME280;15597;50.914;6.638;2023-05-25T10:36:55;101877.34;;;21.25;42.40
28344;BME280;15597;50.914;6.638;2023-05-25T10:39:21;101878.78;;;21.33;42.41
28344;BME280;15597;50.914;6.638;2023-05-25T10:41:50;101875.47;;;21.47;42.39
28344;BME280;15597;50.914;6.638;2023-05-25T10:44:18;101881.31;;;21.55;41.84
28344;BME280;15597;50.914;6.638;2023-05-25T10:46:46;101866.25;;;21.54;41.97
28344;BME280;15597;50.914;6.638;2023-05-25T10:49:14;101871.59;;;21.35;42.67
28344;BME280;15597;50.914;6.638;2023-05-25T10:51:57;101875.13;;;21.35;42.29
28344;BME280;15597;50.914;6.638;2023-05-25T10:54:27;101878.41;;;21.21;42.67
28344;BME280;15597;50.914;6.638;2023-05-25T10:57:17;101877.13;;;21.30;42.82
28344;BME280;15597;50.914;6.638;2023-05-25T10:59:54;101869.13;;;21.49;42.36
28344;BME280;15597;50.914;6.638;2023-05-25T11:02:26;101867.41;;;21.48;42.88
28344;BME280;15597;50.914;6.638;2023-05-25T11:08:00;101870.94;;;21.87;42.05
28344;BME280;15597;50.914;6.638;2023-05-25T11:13:36;101869.38;;;22.00;41.61
28344;BME280;15597;50.914;6.638;2023-05-25T11:16:22;101871.97;;;22.02;41.65
28344;BME280;15597;50.914;6.638;2023-05-25T11:24:10;101865.47;;;22.08;40.83
28344;BME280;15597;50.914;6.638;2023-05-25T11:26:37;101865.63;;;22.22;41.15
28344;BME280;15597;50.914;6.638;2023-05-25T11:29:16;101870.97;;;22.22;41.12
28344;BME280;15597;50.914;6.638;2023-05-25T11:31:51;101866.72;;;22.18;40.68
28344;BME280;15597;50.914;6.638;2023-05-25T11:34:18;101874.56;;;22.21;40.63
28344;BME280;15597;50.914;6.638;2023-05-25T11:36:46;101865.72;;;22.21;40.94
28344;BME280;15597;50.914;6.638;2023-05-25T11:39:11;101859.19;;;22.26;40.72
28344;BME280;15597;50.914;6.638;2023-05-25T11:41:39;101853.59;;;22.32;40.65
28344;BME280;15597;50.914;6.638;2023-05-25T11:44:05;101857.66;;;22.40;40.79
28344;BME280;15597;50.914;6.638;2023-05-25T11:46:31;101847.50;;;22.48;41.01
28344;BME280;15597;50.914;6.638;2023-05-25T11:48:58;101859.56;;;22.55;40.44
28344;BME280;15597;50.914;6.638;2023-05-25T11:51:26;101847.84;;;22.58;40.41
28344;BME280;15597;50.914;6.638;2023-05-25T11:53:52;101848.72;;;22.58;40.27
28344;BME280;15597;50.914;6.638;2023-05-25T11:56:19;101851.47;;;22.57;39.96
28344;BME280;15597;50.914;6.638;2023-05-25T11:58:46;101847.16;;;22.54;40.07
28344;BME280;15597;50.914;6.638;2023-05-25T12:01:19;101852.81;;;22.48;40.22
28344;BME280;15597;50.914;6.638;2023-05-25T12:03:46;101852.72;;;22.32;40.58
28344;BME280;15597;50.914;6.638;2023-05-25T12:06:28;101856.88;;;22.38;40.56
28344;BME280;15597;50.914;6.638;2023-05-25T12:08:55;101854.38;;;22.52;40.20
28344;BME280;15597;50.914;6.638;2023-05-25T12:11:34;101859.41;;;22.58;40.32
28344;BME280;15597;50.914;6.638;2023-05-25T12:14:03;101856.47;;;22.63;40.04
28344;BME280;15597;50.914;6.638;2023-05-25T12:16:30;101858.75;;;22.36;40.18
28344;BME280;15597;50.914;6.638;2023-05-25T12:18:56;101859.44;;;22.39;40.33
28344;BME280;15597;50.914;6.638;2023-05-25T12:21:22;101862.22;;;22.38;40.01
28344;BME280;15597;50.914;6.638;2023-05-25T12:23:49;101864.09;;;22.36;40.39
28344;BME280;15597;50.914;6.638;2023-05-25T12:26:16;101855.84;;;22.40;40.36
28344;BME280;15597;50.914;6.638;2023-05-25T12:28:59;101862.38;;;22.35;40.50
28344;BME280;15597;50.914;6.638;2023-05-25T12:31:26;101860.16;;;22.43;40.34
28344;BME280;15597;50.914;6.638;2023-05-25T12:34:14;101862.75;;;22.44;40.10
28344;BME280;15597;50.914;6.638;2023-05-25T12:36:52;101857.84;;;22.54;40.27
28344;BME280;15597;50.914;6.638;2023-05-25T12:41:53;101860.31;;;22.75;40.27
28344;BME280;15597;50.914;6.638;2023-05-25T12:44:20;101858.72;;;22.88;39.92
28344;BME280;15597;50.914;6.638;2023-05-25T12:46:51;101856.25;;;23.01;39.50
28344;BME280;15597;50.914;6.638;2023-05-25T12:51:49;101859.41;;;23.26;39.37
28344;BME280;15597;50.914;6.638;2023-05-25T12:54:15;101859.53;;;23.40;39.23
28344;BME280;15597;50.914;6.638;2023-05-25T12:56:57;101856.69;;;23.43;39.21
28344;BME280;15597;50.914;6.638;2023-05-25T12:59:23;101852.28;;;23.58;38.78
28344;BME280;15597;50.914;6.638;2023-05-25T13:01:49;101854.78;;;23.61;38.64
28344;BME280;15597;50.914;6.638;2023-05-25T13:04:14;101851.69;;;23.69;38.91
28344;BME280;15597;50.914;6.638;2023-05-25T13:06:40;101865.09;;;23.84;38.53
28344;BME280;15597;50.914;6.638;2023-05-25T13:09:05;101858.72;;;24.02;38.41
28344;BME280;15597;50.914;6.638;2023-05-25T13:11:31;101852.47;;;24.18;38.09
28344;BME280;15597;50.914;6.638;2023-05-25T13:13:56;101858.44;;;24.38;38.20
28344;BME280;15597;50.914;6.638;2023-05-25T13:16:22;101851.59;;;24.48;37.56
28344;BME280;15597;50.914;6.638;2023-05-25T13:18:49;101844.53;;;24.61;37.56